Time;durP1;ratioP1;P1;durP2;ratioP2;P2;SDS_P1;SDS_P2;PMS_P1;PMS_P2;Temp;Humidity;BMP_temperature;BMP_pressure;BME280_temperature;BME280_humidity;BME280_pressure;Samples;Min_cycle;Max_cycle;Signal;HPM_P1;HPM_P2
2022/05/20 00:00:30;;;;;;;;;;;;;;;21.61;50.30;100939.72;4960564;28;97809;-47
2022/05/20 00:02:56;;;;;;;;;;;;;;;21.59;50.52;100945.53;4960599;28;98162;-58
2022/05/20 00:05:23;;;;;;;;;;;;;;;21.55;50.74;100945.38;4945479;28;127110;-59
2022/05/20 00:07:48;;;;;;;;;;;;;;;21.52;50.79;100954.28;4940514;28;98164;-47
2022/05/20 00:10:15;;;;;;;;;;;;;;;21.49;51.30;100951.38;4939222;28;128336;-59
2022/05/20 00:12:41;;;;;;;;;;;;;;;21.45;51.28;100953.16;4941098;28;97878;-58
2022/05/20 00:15:08;;;;;;;;;;;;;;;21.42;51.26;100954.66;4948119;28;98688;-59
2022/05/20 00:17:34;;;;;;;;;;;;;;;21.39;51.08;100960.78;4960424;28;97842;-48
2022/05/20 00:20:01;;;;;;;;;;;;;;;21.36;51.39;100966.13;4958865;28;126481;-58
2022/05/20 00:22:27;;;;;;;;;;;;;;;21.33;51.63;100978.53;4960718;28;97667;-59
2022/05/20 00:27:37;;;;;;;;;;;;;;;21.25;52.13;100985.63;4936424;28;98504;-58
2022/05/20 00:30:03;;;;;;;;;;;;;;;21.22;52.33;100982.72;4939877;28;127619;-47
2022/05/20 00:32:29;;;;;;;;;;;;;;;21.18;51.88;100992.72;4940173;28;121263;-58
2022/05/20 00:34:55;;;;;;;;;;;;;;;21.12;52.58;101007.75;4944218;28;127849;-47
2022/05/20 00:37:21;;;;;;;;;;;;;;;21.08;53.23;100989.22;4958690;28;126765;-47
2022/05/20 00:39:47;;;;;;;;;;;;;;;21.03;53.45;100985.84;4959423;28;98262;-46
2022/05/20 00:42:15;;;;;;;;;;;;;;;20.98;53.42;100991.47;4959886;28;122466;-58
2022/05/20 00:44:41;;;;;;;;;;;;;;;20.93;53.74;100997.13;4955560;28;99227;-59
2022/05/20 00:47:07;;;;;;;;;;;;;;;20.89;53.76;101002.47;4940832;28;98922;-58
2022/05/20 00:49:32;;;;;;;;;;;;;;;20.83;53.84;100996.34;4939020;28;124335;-58
2022/05/20 00:51:58;;;;;;;;;;;;;;;20.79;53.94;101003.59;4956812;28;122972;-59
2022/05/20 00:54:26;;;;;;;;;;;;;;;20.76;54.03;100996.03;4959761;28;98550;-47
2022/05/20 00:56:55;;;;;;;;;;;;;;;20.72;54.31;101000.53;4941544;28;98203;-46
2022/05/20 00:59:23;;;;;;;;;;;;;;;20.69;54.40;101005.84;4959142;28;98004;-58
2022/05/20 01:01:49;;;;;;;;;;;;;;;20.64;55.06;100998.63;4941272;28;97900;-47
2022/05/20 01:04:16;;;;;;;;;;;;;;;20.59;54.83;101006.97;4940661;28;102041;-58
2022/05/20 01:06:42;;;;;;;;;;;;;;;20.56;54.54;100997.47;4954252;28;99304;-58
2022/05/20 01:09:08;;;;;;;;;;;;;;;20.53;54.72;101013.75;4938658;28;125385;-46
2022/05/20 01:11:35;;;;;;;;;;;;;;;20.49;54.90;101010.03;4939206;28;121757;-59
2022/05/20 01:14:01;;;;;;;;;;;;;;;20.46;54.70;101016.13;4970953;28;127099;-47
2022/05/20 01:16:28;;;;;;;;;;;;;;;20.46;54.94;101007.91;4958049;28;125013;-59
2022/05/20 01:18:56;;;;;;;;;;;;;;;20.40;55.64;101020.16;4959418;28;98504;-46
2022/05/20 01:21:22;;;;;;;;;;;;;;;20.37;55.30;101005.16;4958199;28;98004;-58
2022/05/20 01:23:48;;;;;;;;;;;;;;;20.34;55.75;101016.75;4939654;28;98377;-49
2022/05/20 01:26:14;;;;;;;;;;;;;;;20.27;56.31;101021.88;4938754;28;127558;-48
2022/05/20 01:28:40;;;;;;;;;;;;;;;20.24;55.89;101022.50;4953864;28;98070;-47
2022/05/20 01:31:10;;;;;;;;;;;;;;;20.21;56.33;101025.91;4958508;28;119043;-59
2022/05/20 01:33:44;;;;;;;;;;;;;;;20.15;56.06;101025.22;4942827;28;98943;-47
2022/05/20 01:36:13;;;;;;;;;;;;;;;20.13;56.14;101023.97;4939297;28;99098;-58
2022/05/20 01:38:39;;;;;;;;;;;;;;;20.08;56.11;101033.09;4938999;28;97946;-47
2022/05/20 01:41:31;;;;;;;;;;;;;;;20.04;56.60;101037.59;4939914;28;98293;-58
2022/05/20 01:44:11;;;;;;;;;;;;;;;20.00;56.38;101040.19;4938623;28;98636;-47
2022/05/20 01:47:06;;;;;;;;;;;;;;;19.96;56.47;101030.97;4939669;28;98582;-59
2022/05/20 01:50:14;;;;;;;;;;;;;;;19.93;56.62;101036.28;4922129;28;120481;-46
2022/05/20 01:52:56;;;;;;;;;;;;;;;19.91;56.53;101035.78;4934517;28;97903;-47
2022/05/20 01:55:27;;;;;;;;;;;;;;;19.86;57.72;101037.53;4968375;28;98594;-59
2022/05/20 01:58:21;;;;;;;;;;;;;;;19.80;57.03;101036.06;4956244;28;125477;-47
2022/05/20 02:00:47;;;;;;;;;;;;;;;19.76;57.12;101032.34;4956268;28;98158;-60
2022/05/20 02:03:35;;;;;;;;;;;;;;;19.74;57.38;101037.34;4956803;28;98177;-53
2022/05/20 02:06:24;;;;;;;;;;;;;;;19.70;57.20;101043.75;4939478;28;123023;-59
2022/05/20 02:08:52;;;;;;;;;;;;;;;19.67;57.30;101036.19;4957816;28;98221;-47
2022/05/20 02:11:43;;;;;;;;;;;;;;;19.65;57.54;101036.50;4956580;28;98592;-58
2022/05/20 02:14:40;;;;;;;;;;;;;;;19.62;57.37;101037.13;4957851;28;120783;-58
2022/05/20 02:17:13;;;;;;;;;;;;;;;19.59;57.90;101035.78;4941201;28;99221;-46
2022/05/20 02:19:48;;;;;;;;;;;;;;;19.57;57.46;101039.94;4955862;28;126909;-59
2022/05/20 02:22:15;;;;;;;;;;;;;;;19.55;57.61;101040.25;4936157;28;98077;-58
2022/05/20 02:24:41;;;;;;;;;;;;;;;19.51;57.83;101046.69;4938880;28;97824;-58
2022/05/20 02:27:08;;;;;;;;;;;;;;;19.49;58.16;101044.28;4955163;28;127383;-47
2022/05/20 02:29:40;;;;;;;;;;;;;;;19.46;58.21;101053.09;4967571;28;123920;-59
2022/05/20 02:32:13;;;;;;;;;;;;;;;19.45;58.08;101056.13;4943866;28;98664;-47
2022/05/20 02:34:39;;;;;;;;;;;;;;;19.41;57.82;101058.66;4956292;28;97955;-47
2022/05/20 02:37:25;;;;;;;;;;;;;;;19.38;58.56;101059.31;4957273;28;98178;-48
2022/05/20 02:39:51;;;;;;;;;;;;;;;19.35;59.35;101070.88;4941922;28;98607;-48
2022/05/20 02:42:17;;;;;;;;;;;;;;;19.31;58.86;101062.47;4942727;28;122309;-58
2022/05/20 02:44:43;;;;;;;;;;;;;;;19.29;58.61;101059.22;4940227;28;123984;-58
2022/05/20 02:47:10;;;;;;;;;;;;;;;19.25;59.31;101066.44;4940757;28;126620;-47
2022/05/20 02:49:36;;;;;;;;;;;;;;;19.23;59.60;101067.91;4941371;28;98953;-58
2022/05/20 02:52:02;;;;;;;;;;;;;;;19.20;59.43;101071.25;4941407;28;126416;-47
2022/05/20 02:54:28;;;;;;;;;;;;;;;19.18;59.82;101065.25;4959332;28;107577;-59
2022/05/20 02:56:54;;;;;;;;;;;;;;;19.13;59.73;101068.94;4960358;28;129200;-59
2022/05/20 03:04:49;;;;;;;;;;;;;;;19.04;60.38;101076.25;4940338;28;97810;-58
2022/05/20 03:07:15;;;;;;;;;;;;;;;19.02;60.18;101076.59;4938685;28;127153;-47
2022/05/20 03:09:41;;;;;;;;;;;;;;;18.99;60.40;101071.72;4941148;28;98354;-47
2022/05/20 03:12:07;;;;;;;;;;;;;;;18.97;60.95;101070.41;4941165;28;98218;-47
2022/05/20 03:14:34;;;;;;;;;;;;;;;18.95;60.28;101078.94;4938706;28;118209;-58
2022/05/20 03:17:00;;;;;;;;;;;;;;;18.94;61.24;101080.03;4940857;28;97865;-58
2022/05/20 03:19:30;;;;;;;;;;;;;;;18.92;60.77;101087.72;4940898;28;98459;-47
2022/05/20 03:22:06;;;;;;;;;;;;;;;18.91;60.81;101086.13;4944441;28;98542;-59
2022/05/20 03:24:32;;;;;;;;;;;;;;;18.89;60.70;101089.16;4941677;28;122760;-58
2022/05/20 03:26:58;;;;;;;;;;;;;;;18.89;60.83;101091.06;4941439;28;97903;-58
2022/05/20 03:29:24;;;;;;;;;;;;;;;18.90;60.91;101095.41;4941014;28;98185;-58
2022/05/20 03:31:50;;;;;;;;;;;;;;;18.87;61.09;101099.59;4939988;28;126901;-46
2022/05/20 03:34:17;;;;;;;;;;;;;;;18.87;60.98;101109.72;4956798;28;98081;-58
2022/05/20 03:36:45;;;;;;;;;;;;;;;18.85;60.78;101109.19;4960481;28;98830;-46
2022/05/20 03:39:13;;;;;;;;;;;;;;;18.85;60.68;101107.28;4960058;28;98355;-48
2022/05/20 03:41:39;;;;;;;;;;;;;;;18.86;60.93;101108.91;4961096;28;97914;-58
2022/05/20 03:44:05;;;;;;;;;;;;;;;18.89;60.58;101121.13;4942196;28;106096;-46
2022/05/20 03:46:31;;;;;;;;;;;;;;;18.90;60.74;101117.25;4940152;28;108606;-47
2022/05/20 03:48:58;;;;;;;;;;;;;;;18.87;60.98;101115.16;4940858;28;103211;-47
2022/05/20 03:51:25;;;;;;;;;;;;;;;18.85;61.04;101112.72;4940810;28;110816;-58
2022/05/20 03:53:50;;;;;;;;;;;;;;;18.87;60.87;101115.97;4943256;28;97819;-58
2022/05/20 03:56:16;;;;;;;;;;;;;;;18.93;60.91;101116.66;4959174;28;128082;-58
2022/05/20 03:58:42;;;;;;;;;;;;;;;18.97;60.68;101106.72;4959086;28;127933;-59
2022/05/20 04:03:53;;;;;;;;;;;;;;;19.05;60.75;101113.38;4951108;28;97915;-58
2022/05/20 04:06:19;;;;;;;;;;;;;;;19.06;60.90;101110.38;4939688;28;115705;-58
2022/05/20 04:08:46;;;;;;;;;;;;;;;19.05;60.37;101129.78;4939584;28;127274;-48
2022/05/20 04:11:13;;;;;;;;;;;;;;;19.06;60.94;101125.91;4958898;28;98019;-49
2022/05/20 04:13:39;;;;;;;;;;;;;;;19.07;60.73;101133.81;4944021;28;97735;-59
2022/05/20 04:16:06;;;;;;;;;;;;;;;19.07;60.72;101133.81;4937910;28;98032;-47
2022/05/20 04:18:32;;;;;;;;;;;;;;;19.10;60.32;101133.22;4940399;28;98834;-48
2022/05/20 04:20:58;;;;;;;;;;;;;;;19.12;60.68;101139.16;4940192;28;128175;-46
2022/05/20 04:23:24;;;;;;;;;;;;;;;19.14;60.51;101149.81;4940417;28;123516;-47
2022/05/20 04:25:50;;;;;;;;;;;;;;;19.15;60.51;101136.94;4938054;28;127841;-59
2022/05/20 04:28:16;;;;;;;;;;;;;;;19.18;60.62;101152.69;4937385;28;128208;-59
2022/05/20 04:30:42;;;;;;;;;;;;;;;19.21;60.24;101150.16;4936430;28;125555;-60
2022/05/20 04:33:08;;;;;;;;;;;;;;;19.26;60.54;101155.53;4942066;28;98121;-59
2022/05/20 04:35:34;;;;;;;;;;;;;;;19.31;60.15;101149.13;4936254;28;99664;-46
2022/05/20 04:38:00;;;;;;;;;;;;;;;19.34;60.23;101157.53;4935828;28;128306;-47
2022/05/20 04:40:26;;;;;;;;;;;;;;;19.38;59.94;101157.72;4935741;28;98281;-48
2022/05/20 04:48:25;;;;;;;;;;;;;;;19.53;59.63;101170.19;4933537;28;98009;-47
2022/05/20 04:50:51;;;;;;;;;;;;;;;19.59;59.71;101169.75;4935420;28;127159;-47
2022/05/20 04:56:02;;;;;;;;;;;;;;;19.82;59.13;101178.00;4934651;28;98504;-48
2022/05/20 04:58:28;;;;;;;;;;;;;;;19.98;58.85;101175.66;4932051;28;128533;-59
2022/05/20 05:00:57;;;;;;;;;;;;;;;20.12;58.79;101184.56;4937093;28;98853;-59
2022/05/20 05:03:23;;;;;;;;;;;;;;;20.34;58.17;101187.25;4948915;28;98139;-57
2022/05/20 05:05:49;;;;;;;;;;;;;;;20.58;58.04;101189.63;4934543;28;128253;-47
2022/05/20 05:08:16;;;;;;;;;;;;;;;20.73;57.49;101196.63;4937429;28;126047;-60
2022/05/20 05:10:42;;;;;;;;;;;;;;;20.79;57.50;101195.34;4938358;28;98174;-58
2022/05/20 05:13:11;;;;;;;;;;;;;;;20.89;57.24;101198.91;4945894;28;108516;-47
2022/05/20 05:15:37;;;;;;;;;;;;;;;20.99;56.98;101193.94;4939167;28;98259;-59
2022/05/20 05:18:09;;;;;;;;;;;;;;;21.10;56.79;101194.41;4938836;28;128136;-58
2022/05/20 05:20:35;;;;;;;;;;;;;;;21.24;56.29;101197.03;4939815;28;97880;-58
2022/05/20 05:23:01;;;;;;;;;;;;;;;21.38;56.25;101205.13;4957162;28;120944;-59
2022/05/20 05:25:30;;;;;;;;;;;;;;;21.52;55.83;101209.31;4951561;28;97761;-47
2022/05/20 05:27:56;;;;;;;;;;;;;;;21.70;55.53;101207.38;4939811;28;98147;-48
2022/05/20 05:30:22;;;;;;;;;;;;;;;21.80;55.29;101207.03;4938388;28;126640;-47
2022/05/20 05:32:48;;;;;;;;;;;;;;;21.93;55.00;101207.16;4955225;28;97771;-59
2022/05/20 05:35:16;;;;;;;;;;;;;;;22.11;54.60;101211.47;4956971;28;127753;-48
2022/05/20 05:37:42;;;;;;;;;;;;;;;22.33;54.16;101224.22;4958606;28;122278;-60
2022/05/20 05:40:11;;;;;;;;;;;;;;;22.38;54.19;101225.97;4958300;28;98087;-59
2022/05/20 05:42:37;;;;;;;;;;;;;;;22.44;53.90;101224.63;4944847;28;113884;-59
2022/05/20 05:45:05;;;;;;;;;;;;;;;22.72;53.50;101225.81;4938381;28;128565;-58
2022/05/20 05:47:31;;;;;;;;;;;;;;;22.89;52.91;101224.91;4940498;28;98596;-58
2022/05/20 05:49:56;;;;;;;;;;;;;;;22.91;52.76;101236.44;4938835;28;110216;-50
2022/05/20 05:52:23;;;;;;;;;;;;;;;23.00;52.86;101231.69;4939668;28;97785;-47
2022/05/20 05:54:48;;;;;;;;;;;;;;;23.25;52.42;101232.63;4947636;28;124765;-60
2022/05/20 05:57:14;;;;;;;;;;;;;;;23.41;51.78;101235.59;4953293;28;128080;-59
2022/05/20 05:59:40;;;;;;;;;;;;;;;23.32;51.95;101237.59;4937549;28;117991;-46
2022/05/20 06:02:08;;;;;;;;;;;;;;;23.24;52.24;101238.47;4941449;28;98026;-48
2022/05/20 06:04:34;;;;;;;;;;;;;;;23.23;52.07;101231.38;4956470;28;98085;-60
2022/05/20 06:07:00;;;;;;;;;;;;;;;23.08;52.07;101224.50;4942367;28;129742;-58
2022/05/20 06:09:26;;;;;;;;;;;;;;;23.07;51.97;101220.16;4942285;28;120747;-58
2022/05/20 06:11:52;;;;;;;;;;;;;;;23.63;51.24;101220.69;4941334;28;98035;-59
2022/05/20 06:14:18;;;;;;;;;;;;;;;23.58;51.12;101217.31;4940679;28;127694;-49
2022/05/20 06:16:44;;;;;;;;;;;;;;;23.55;51.52;101221.56;4941217;28;128308;-60
2022/05/20 06:19:10;;;;;;;;;;;;;;;23.59;51.08;101219.75;4943415;28;98030;-58
2022/05/20 06:21:37;;;;;;;;;;;;;;;23.65;51.20;101214.84;4941842;28;97801;-48
2022/05/20 06:24:03;;;;;;;;;;;;;;;23.63;51.05;101215.19;4942297;28;97776;-57
2022/05/20 06:26:32;;;;;;;;;;;;;;;23.55;51.34;101213.31;4941243;28;123277;-59
2022/05/20 06:28:58;;;;;;;;;;;;;;;23.58;51.17;101206.31;4958894;28;98421;-47
2022/05/20 06:31:24;;;;;;;;;;;;;;;23.65;51.12;101203.81;4960444;28;123569;-49
2022/05/20 06:33:50;;;;;;;;;;;;;;;23.41;51.45;101216.31;4961717;28;97850;-59
2022/05/20 06:41:45;;;;;;;;;;;;;;;22.87;51.91;101210.72;4956886;28;97848;-59
2022/05/20 06:44:12;;;;;;;;;;;;;;;22.87;51.90;101207.97;4944184;28;98452;-59
2022/05/20 06:46:38;;;;;;;;;;;;;;;22.82;52.25;101215.59;4956624;28;98650;-47
2022/05/20 06:49:04;;;;;;;;;;;;;;;22.77;52.14;101211.09;4945772;28;97976;-51
2022/05/20 06:51:31;;;;;;;;;;;;;;;22.73;52.26;101216.44;4948437;28;122722;-60
2022/05/20 06:53:59;;;;;;;;;;;;;;;22.78;52.09;101215.44;4960537;28;98588;-63
2022/05/20 06:56:26;;;;;;;;;;;;;;;22.84;52.01;101213.31;4958045;28;99495;-49
2022/05/20 06:58:52;;;;;;;;;;;;;;;22.92;51.67;101218.00;4956355;28;97897;-60
2022/05/20 07:01:18;;;;;;;;;;;;;;;23.05;51.58;101213.38;4960280;28;122482;-49
2022/05/20 07:03:45;;;;;;;;;;;;;;;23.15;51.44;101208.28;4944718;28;112065;-59
2022/05/20 07:06:11;;;;;;;;;;;;;;;23.35;51.09;101211.38;4952831;28;98859;-59
2022/05/20 07:08:37;;;;;;;;;;;;;;;23.28;51.16;101217.41;4956255;28;98621;-47
2022/05/20 07:11:03;;;;;;;;;;;;;;;23.94;49.89;101206.50;4948742;28;97771;-60
2022/05/20 07:13:30;;;;;;;;;;;;;;;25.33;47.83;101201.91;4948795;28;99436;-48
2022/05/20 07:15:57;;;;;;;;;;;;;;;26.29;46.56;101200.19;4960822;28;100253;-59
2022/05/20 07:18:26;;;;;;;;;;;;;;;27.03;45.79;101195.63;4950258;28;98030;-59
2022/05/20 07:20:52;;;;;;;;;;;;;;;27.66;45.06;101195.38;4941276;28;97766;-58
2022/05/20 07:23:18;;;;;;;;;;;;;;;28.45;44.18;101207.13;4941687;28;98268;-60
2022/05/20 07:25:44;;;;;;;;;;;;;;;28.29;44.38;101198.91;4955549;28;107828;-50
2022/05/20 07:28:09;;;;;;;;;;;;;;;28.26;44.50;101200.47;4952812;28;127367;-50
2022/05/20 07:30:36;;;;;;;;;;;;;;;28.34;43.68;101204.97;4945027;28;111066;-60
2022/05/20 07:33:02;;;;;;;;;;;;;;;28.45;44.05;101205.13;4955828;28;98697;-60
2022/05/20 07:35:28;;;;;;;;;;;;;;;28.54;43.09;101204.91;4942236;28;128528;-60
2022/05/20 07:37:54;;;;;;;;;;;;;;;28.49;43.55;101199.66;4959217;28;98437;-60
2022/05/20 07:40:20;;;;;;;;;;;;;;;28.14;43.09;101197.88;4960564;28;97876;-48
2022/05/20 07:42:46;;;;;;;;;;;;;;;27.93;43.57;101201.06;4951555;28;120538;-61
2022/05/20 07:45:12;;;;;;;;;;;;;;;28.01;43.08;101207.53;4959966;28;97926;-48
2022/05/20 07:47:38;;;;;;;;;;;;;;;28.30;42.97;101206.06;4959505;28;120760;-59
2022/05/20 07:50:05;;;;;;;;;;;;;;;29.16;41.56;101201.84;4942629;28;97860;-47
2022/05/20 07:55:19;;;;;;;;;;;;;;;28.93;41.16;101185.28;4948517;28;100832;-61
2022/05/20 07:57:45;;;;;;;;;;;;;;;29.13;40.72;101174.88;4940433;28;98039;-60
2022/05/20 08:00:13;;;;;;;;;;;;;;;29.59;40.31;101176.25;4958312;28;123066;-59
2022/05/20 08:02:39;;;;;;;;;;;;;;;30.31;39.57;101166.59;4944162;28;98047;-51
2022/05/20 08:05:05;;;;;;;;;;;;;;;31.16;38.01;101171.09;4938266;28;125392;-61
2022/05/20 08:07:42;;;;;;;;;;;;;;;31.86;36.84;101166.16;4940632;28;97857;-49
2022/05/20 08:10:20;;;;;;;;;;;;;;;32.00;36.09;101157.84;4958036;28;97982;-60
2022/05/20 08:12:46;;;;;;;;;;;;;;;32.57;35.76;101162.59;4958768;28;99372;-60
2022/05/20 08:15:12;;;;;;;;;;;;;;;32.90;35.88;101152.16;4960536;28;99379;-48
2022/05/20 08:17:40;;;;;;;;;;;;;;;32.33;36.17;101158.59;4956821;28;97921;-60
2022/05/20 08:20:09;;;;;;;;;;;;;;;32.00;36.33;101143.09;4957443;28;98182;-59
2022/05/20 08:22:35;;;;;;;;;;;;;;;32.97;34.84;101152.97;4957981;28;98347;-61
2022/05/20 08:25:01;;;;;;;;;;;;;;;33.54;34.45;101157.47;4959666;28;124807;-50
2022/05/20 08:27:29;;;;;;;;;;;;;;;33.95;33.80;101160.38;4957866;28;97952;-61
2022/05/20 08:29:55;;;;;;;;;;;;;;;33.96;33.37;101150.78;4949094;28;97837;-60
2022/05/20 08:32:21;;;;;;;;;;;;;;;32.88;34.72;101137.78;4954305;28;98490;-60
2022/05/20 08:34:47;;;;;;;;;;;;;;;32.56;35.26;101135.91;4958034;28;128281;-60
2022/05/20 08:37:13;;;;;;;;;;;;;;;33.39;34.21;101123.22;4940043;28;98007;-60
2022/05/20 08:39:39;;;;;;;;;;;;;;;34.06;32.88;101126.78;4939019;28;120716;-60
2022/05/20 08:42:10;;;;;;;;;;;;;;;34.47;32.92;101119.56;4953718;28;127104;-50
2022/05/20 08:44:36;;;;;;;;;;;;;;;34.59;31.62;101119.09;4953533;28;126086;-61
2022/05/20 08:47:27;;;;;;;;;;;;;;;34.13;32.70;101114.72;4937911;28;98162;-59
2022/05/20 08:49:57;;;;;;;;;;;;;;;34.50;32.16;101113.19;4939761;28;97796;-49
2022/05/20 08:52:23;;;;;;;;;;;;;;;34.44;31.98;101107.22;4954873;28;98577;-60
2022/05/20 08:54:49;;;;;;;;;;;;;;;34.73;31.54;101098.53;4942418;28;98695;-59
2022/05/20 08:57:22;;;;;;;;;;;;;;;34.99;31.21;101103.44;4942494;28;125556;-61
2022/05/20 08:59:48;;;;;;;;;;;;;;;34.40;31.96;101106.47;4920714;28;120062;-51
2022/05/20 09:02:14;;;;;;;;;;;;;;;34.66;31.78;101094.63;4939712;28;128023;-59
2022/05/20 09:04:40;;;;;;;;;;;;;;;34.78;32.29;101107.28;4944921;28;98596;-51
2022/05/20 09:07:11;;;;;;;;;;;;;;;34.96;31.84;101097.84;4940019;28;102262;-61
2022/05/20 09:09:51;;;;;;;;;;;;;;;35.01;31.73;101100.22;4954880;28;98140;-61
2022/05/20 09:12:43;;;;;;;;;;;;;;;34.88;32.17;101102.75;4940518;28;98215;-60
2022/05/20 09:18:11;;;;;;;;;;;;;;;34.82;31.29;101101.63;4941411;28;97934;-49
2022/05/20 09:20:45;;;;;;;;;;;;;;;34.28;32.44;101101.41;4940106;28;98128;-47
2022/05/20 09:23:11;;;;;;;;;;;;;;;33.95;32.17;101103.66;4940130;28;98833;-59
2022/05/20 09:25:46;;;;;;;;;;;;;;;33.65;32.70;101095.94;4966339;28;99351;-50
2022/05/20 09:28:36;;;;;;;;;;;;;;;33.31;33.62;101099.31;4954160;28;99171;-60
2022/05/20 09:31:22;;;;;;;;;;;;;;;32.71;33.82;101101.19;4938372;28;98203;-59
2022/05/20 09:34:13;;;;;;;;;;;;;;;31.90;34.87;101100.09;4965515;28;98724;-48
2022/05/20 09:37:00;;;;;;;;;;;;;;;31.47;35.17;101094.44;4958103;28;98047;-59
2022/05/20 09:39:41;;;;;;;;;;;;;;;31.85;34.62;101092.13;4962921;28;97914;-47
2022/05/20 09:42:27;;;;;;;;;;;;;;;32.18;34.61;101095.69;4945247;28;97889;-59
2022/05/20 09:44:57;;;;;;;;;;;;;;;32.26;34.45;101086.91;4961328;28;98149;-60
2022/05/20 09:47:38;;;;;;;;;;;;;;;32.46;34.28;101083.72;4945806;28;99240;-59
2022/05/20 09:50:11;;;;;;;;;;;;;;;32.36;34.30;101071.38;4942794;28;98467;-59
2022/05/20 09:52:59;;;;;;;;;;;;;;;32.14;34.48;101072.59;4960108;28;98237;-59
2022/05/20 09:55:31;;;;;;;;;;;;;;;32.01;34.57;101078.59;4962105;28;99713;-48
2022/05/20 09:58:16;;;;;;;;;;;;;;;31.95;34.44;101071.84;4955938;28;98431;-60
2022/05/20 10:00:53;;;;;;;;;;;;;;;31.80;34.59;101066.66;4942534;28;98371;-49
2022/05/20 10:03:45;;;;;;;;;;;;;;;31.51;35.11;101072.97;4940921;28;102693;-59
2022/05/20 10:06:34;;;;;;;;;;;;;;;31.31;35.20;101066.19;4943900;28;112575;-59
2022/05/20 10:09:22;;;;;;;;;;;;;;;31.43;34.84;101071.38;4959498;28;123391;-47
2022/05/20 10:12:11;;;;;;;;;;;;;;;30.65;35.79;101063.53;4960084;28;98022;-50
2022/05/20 10:15:00;;;;;;;;;;;;;;;30.52;36.01;101059.50;4941645;28;97762;-59
2022/05/20 10:17:45;;;;;;;;;;;;;;;30.84;35.87;101054.09;4953699;28;109070;-59
2022/05/20 10:20:16;;;;;;;;;;;;;;;30.82;36.05;101050.94;4945887;28;98340;-59
2022/05/20 10:22:47;;;;;;;;;;;;;;;30.79;36.36;101048.91;4956588;28;119742;-48
2022/05/20 10:25:24;;;;;;;;;;;;;;;30.52;36.35;101049.16;4956394;28;98055;-48
2022/05/20 10:27:54;;;;;;;;;;;;;;;30.39;36.65;101044.34;4942759;28;98297;-47
2022/05/20 10:33:11;;;;;;;;;;;;;;;30.06;37.05;101043.28;4958365;28;97856;-48
2022/05/20 10:36:04;;;;;;;;;;;;;;;29.81;37.25;101043.13;4955440;28;97955;-49
2022/05/20 10:38:44;;;;;;;;;;;;;;;29.78;37.17;101038.31;4941247;28;98736;-59
2022/05/20 10:41:22;;;;;;;;;;;;;;;30.56;36.43;101032.50;4940345;28;113429;-59
2022/05/20 10:50:12;;;;;;;;;;;;;;;32.16;34.86;101022.84;4961896;28;97823;-59
2022/05/20 10:52:58;;;;;;;;;;;;;;;33.45;33.81;101023.03;4953395;28;98799;-47
2022/05/20 10:55:29;;;;;;;;;;;;;;;34.00;32.52;101011.03;4960987;28;98069;-59
2022/05/20 10:58:20;;;;;;;;;;;;;;;34.27;33.01;101008.34;4960380;28;98049;-60
2022/05/20 11:00:50;;;;;;;;;;;;;;;35.03;31.55;101000.59;4944217;28;98534;-59
2022/05/20 11:03:58;;;;;;;;;;;;;;;35.35;31.38;100988.09;4961497;28;98914;-60
2022/05/20 11:06:45;;;;;;;;;;;;;;;35.97;30.79;100986.59;4940749;28;100689;-60
2022/05/20 11:09:43;;;;;;;;;;;;;;;35.90;30.21;100975.53;4941875;28;97805;-60
2022/05/20 11:12:15;;;;;;;;;;;;;;;35.45;29.89;100973.13;4928717;28;98176;-52
2022/05/20 11:15:03;;;;;;;;;;;;;;;35.08;30.01;100960.09;4938320;28;117939;-60
2022/05/20 11:17:29;;;;;;;;;;;;;;;35.52;30.21;100947.78;4957559;28;98271;-49
2022/05/20 11:20:19;;;;;;;;;;;;;;;35.58;30.10;100948.88;4949461;28;97766;-60
2022/05/20 11:23:03;;;;;;;;;;;;;;;35.50;30.61;100944.63;4961279;28;98072;-60
2022/05/20 11:25:53;;;;;;;;;;;;;;;35.74;30.44;100944.59;4959126;28;98532;-60
2022/05/20 11:28:37;;;;;;;;;;;;;;;35.88;29.90;100939.53;4938244;28;125542;-50
2022/05/20 11:31:36;;;;;;;;;;;;;;;36.09;29.95;100931.94;4948361;28;122723;-61
2022/05/20 11:34:15;;;;;;;;;;;;;;;36.27;29.87;100932.31;4939237;28;98829;-61
2022/05/20 11:37:16;;;;;;;;;;;;;;;36.54;29.65;100917.34;4941141;28;98927;-51
2022/05/20 11:40:08;;;;;;;;;;;;;;;36.78;29.55;100907.56;4903614;28;126208;-60
2022/05/20 11:43:18;;;;;;;;;;;;;;;35.74;30.28;100888.53;4953320;28;97818;-58
2022/05/20 11:45:54;;;;;;;;;;;;;;;36.27;28.89;100895.84;4938983;28;98367;-58
2022/05/20 11:48:32;;;;;;;;;;;;;;;35.68;29.81;100887.44;4954806;28;98213;-45
2022/05/20 11:51:13;;;;;;;;;;;;;;;35.31;29.79;100872.50;4954668;28;127192;-46
2022/05/20 11:53:46;;;;;;;;;;;;;;;35.61;29.02;100871.59;4941952;28;98311;-58
2022/05/20 11:56:34;;;;;;;;;;;;;;;35.61;29.27;100866.75;4939131;28;99625;-57
2022/05/20 11:59:23;;;;;;;;;;;;;;;35.06;30.09;100862.53;4939836;28;99084;-58
2022/05/20 12:01:50;;;;;;;;;;;;;;;34.06;30.95;100858.38;4923523;28;127891;-58
2022/05/20 12:04:17;;;;;;;;;;;;;;;34.62;30.20;100844.81;4940676;28;97824;-57
2022/05/20 12:06:54;;;;;;;;;;;;;;;33.88;31.60;100850.19;4921997;28;99278;-57
2022/05/20 12:09:30;;;;;;;;;;;;;;;33.29;32.20;100844.84;4940749;28;98410;-46
2022/05/20 12:12:20;;;;;;;;;;;;;;;32.86;32.67;100850.78;4943595;28;98271;-61
2022/05/20 12:15:12;;;;;;;;;;;;;;;32.54;32.67;100851.00;4960217;28;97948;-60
2022/05/20 12:17:43;;;;;;;;;;;;;;;33.46;32.20;100848.69;4960331;28;98402;-59
2022/05/20 12:25:57;;;;;;;;;;;;;;;35.19;30.32;100839.53;4971047;28;98121;-59
2022/05/20 12:28:23;;;;;;;;;;;;;;;35.44;30.31;100837.03;4960150;28;98496;-59
2022/05/20 12:31:18;;;;;;;;;;;;;;;35.67;30.39;100832.63;4960480;28;98813;-47
2022/05/20 12:34:05;;;;;;;;;;;;;;;36.04;30.25;100837.06;4960271;28;98079;-47
2022/05/20 12:36:31;;;;;;;;;;;;;;;36.11;29.82;100829.28;4960195;28;98020;-55
2022/05/20 12:39:09;;;;;;;;;;;;;;;36.31;29.64;100831.25;4960190;28;104024;-49
2022/05/20 12:41:58;;;;;;;;;;;;;;;36.04;29.71;100823.88;4960171;28;98375;-58
2022/05/20 12:44:24;;;;;;;;;;;;;;;35.01;30.73;100806.22;4973785;28;97895;-60
2022/05/20 12:47:05;;;;;;;;;;;;;;;35.06;30.23;100806.53;4960754;28;99072;-59
2022/05/20 12:49:39;;;;;;;;;;;;;;;35.28;30.13;100795.72;4959218;28;99218;-60
2022/05/20 12:52:27;;;;;;;;;;;;;;;35.69;30.23;100788.16;4960034;28;98369;-47
2022/05/20 12:54:54;;;;;;;;;;;;;;;36.03;29.91;100785.03;4956469;28;98351;-59
2022/05/20 12:57:26;;;;;;;;;;;;;;;36.28;29.69;100784.47;4941103;28;97715;-47
2022/05/20 12:59:58;;;;;;;;;;;;;;;35.58;30.48;100780.75;4935941;28;98580;-48
2022/05/20 13:02:36;;;;;;;;;;;;;;;36.04;29.85;100783.78;4936260;28;98895;-60
2022/05/20 13:05:37;;;;;;;;;;;;;;;36.38;29.57;100783.41;4936666;28;98434;-59
2022/05/20 13:08:11;;;;;;;;;;;;;;;36.47;28.84;100765.97;4950886;28;97813;-51
2022/05/20 13:10:38;;;;;;;;;;;;;;;35.94;28.40;100776.41;4933185;28;98314;-51
2022/05/20 13:13:10;;;;;;;;;;;;;;;35.64;29.33;100793.00;4936478;28;105097;-59
2022/05/20 13:15:41;;;;;;;;;;;;;;;35.14;29.81;100779.19;4935470;28;98264;-47
2022/05/20 13:18:12;;;;;;;;;;;;;;;35.01;30.04;100765.00;4935421;28;107773;-59
2022/05/20 13:20:38;;;;;;;;;;;;;;;34.98;30.11;100754.66;4934262;28;99114;-49
2022/05/20 13:23:06;;;;;;;;;;;;;;;34.71;30.17;100765.94;4916782;28;128351;-52
2022/05/20 13:25:32;;;;;;;;;;;;;;;34.15;31.02;100760.81;4935447;28;97890;-47
2022/05/20 13:28:01;;;;;;;;;;;;;;;33.61;31.56;100752.31;4934735;28;122935;-59
2022/05/20 13:30:30;;;;;;;;;;;;;;;32.94;32.12;100753.84;4935949;28;99292;-59
2022/05/20 13:33:04;;;;;;;;;;;;;;;32.41;32.63;100744.69;4936223;28;98663;-48
2022/05/20 13:35:37;;;;;;;;;;;;;;;31.90;33.14;100737.06;4935772;28;98353;-59
2022/05/20 13:38:03;;;;;;;;;;;;;;;31.49;33.84;100752.34;4935019;28;118949;-48
2022/05/20 13:40:33;;;;;;;;;;;;;;;31.18;34.26;100742.84;4935844;28;107311;-48